createdAt,value
2019-05-21T00:01:38.180Z,15.90
2019-05-21T00:04:04.754Z,15.90
2019-05-21T00:06:31.423Z,15.80
2019-05-21T00:08:57.976Z,15.90
2019-05-21T00:11:24.614Z,15.90
2019-05-21T00:13:51.450Z,15.90
2019-05-21T00:16:19.017Z,15.90
2019-05-21T00:18:45.678Z,16.00
2019-05-21T00:21:12.262Z,16.00
2019-05-21T00:23:38.918Z,16.00
2019-05-21T00:26:06.104Z,16.10
2019-05-21T00:28:38.785Z,16.10
2019-05-21T00:31:43.721Z,16.10
2019-05-21T00:34:50.359Z,16.00
2019-05-21T00:37:54.693Z,15.90
2019-05-21T00:40:59.038Z,16.00
2019-05-21T00:43:41.169Z,15.90
2019-05-21T00:46:07.846Z,16.00
2019-05-21T00:48:34.382Z,16.00
2019-05-21T00:51:00.953Z,16.00
2019-05-21T00:53:27.608Z,16.00
2019-05-21T00:55:55.202Z,16.20
2019-05-21T00:58:21.922Z,16.10
2019-05-21T01:00:48.587Z,16.10
2019-05-21T01:03:15.216Z,16.20
2019-05-21T01:05:41.892Z,16.10
2019-05-21T01:08:08.338Z,16.20
2019-05-21T01:10:34.922Z,16.30
2019-05-21T01:13:02.261Z,16.20
2019-05-21T01:15:28.842Z,16.20
2019-05-21T01:17:55.374Z,16.20
2019-05-21T01:20:22.038Z,16.10
2019-05-21T01:22:48.693Z,16.10
2019-05-21T01:25:15.271Z,16.10
2019-05-21T01:27:41.806Z,16.00
2019-05-21T01:30:08.788Z,16.10
2019-05-21T01:32:35.430Z,16.00
2019-05-21T01:35:16.568Z,16.00
2019-05-21T01:37:33.320Z,16.10
2019-05-21T01:39:59.884Z,16.10
2019-05-21T01:42:27.311Z,16.00
2019-05-21T01:44:53.881Z,16.00
2019-05-21T01:47:20.541Z,16.00
2019-05-21T01:49:47.083Z,15.90
2019-05-21T01:52:13.642Z,15.90
2019-05-21T01:54:40.277Z,15.90
2019-05-21T01:57:06.742Z,15.90
2019-05-21T01:59:33.368Z,15.80
2019-05-21T02:02:00.043Z,15.90
2019-05-21T02:04:26.879Z,15.90
2019-05-21T02:06:53.553Z,15.90
2019-05-21T02:09:21.371Z,15.80
2019-05-21T02:11:47.982Z,15.80
2019-05-21T02:14:15.116Z,15.80
2019-05-21T02:16:41.881Z,15.80
2019-05-21T02:19:09.416Z,15.90
2019-05-21T02:21:36.113Z,15.90
2019-05-21T02:24:04.523Z,16.00
2019-05-21T02:26:31.439Z,15.90
2019-05-21T02:28:58.172Z,16.00
2019-05-21T02:31:25.639Z,15.90
2019-05-21T02:33:52.971Z,16.00
2019-05-21T02:36:21.270Z,16.00
2019-05-21T02:38:48.010Z,16.10
2019-05-21T02:41:14.674Z,16.10
2019-05-21T02:43:41.811Z,16.00
2019-05-21T02:46:09.386Z,15.90
2019-05-21T02:48:36.107Z,16.00
2019-05-21T02:51:04.373Z,15.90
2019-05-21T02:53:34.319Z,15.90
2019-05-21T02:55:59.356Z,15.80
2019-05-21T02:58:26.037Z,15.70
2019-05-21T03:01:03.567Z,15.60
2019-05-21T03:03:32.142Z,15.60
2019-05-21T03:06:12.973Z,15.60
2019-05-21T03:08:27.349Z,15.60
2019-05-21T03:10:54.295Z,15.50
2019-05-21T03:13:20.957Z,15.60
2019-05-21T03:15:47.501Z,15.60
2019-05-21T03:18:14.054Z,15.60
2019-05-21T03:20:40.909Z,15.50
2019-05-21T03:23:09.165Z,15.50
2019-05-21T03:25:36.496Z,15.50
2019-05-21T03:28:03.264Z,15.40
2019-05-21T03:30:29.897Z,15.20
2019-05-21T03:32:56.775Z,15.10
2019-05-21T03:35:23.931Z,15.20
2019-05-21T03:37:50.875Z,15.20
2019-05-21T03:40:17.609Z,15.20
2019-05-21T03:42:45.872Z,15.10
2019-05-21T03:45:13.215Z,15.20
2019-05-21T03:47:39.877Z,15.20
2019-05-21T03:50:09.518Z,15.10
2019-05-21T03:52:36.193Z,15.20
2019-05-21T03:55:05.118Z,15.10
2019-05-21T03:57:31.792Z,15.20
2019-05-21T04:00:00.015Z,15.10
2019-05-21T04:02:26.785Z,15.20
2019-05-21T04:04:53.411Z,15.40
2019-05-21T04:07:20.185Z,15.40
2019-05-21T04:09:48.425Z,15.40
2019-05-21T04:12:16.721Z,15.30
2019-05-21T04:14:45.163Z,15.40
2019-05-21T04:17:13.610Z,15.50
2019-05-21T04:19:44.142Z,15.50
2019-05-21T04:22:15.688Z,15.50
2019-05-21T04:24:43.150Z,15.30
2019-05-21T04:27:09.684Z,15.30
2019-05-21T04:29:37.950Z,15.30
2019-05-21T04:32:04.625Z,15.20
2019-05-21T04:34:32.854Z,15.20
2019-05-21T04:37:09.779Z,15.20
2019-05-21T04:39:29.666Z,15.20
2019-05-21T04:41:56.326Z,15.20
2019-05-21T04:44:23.093Z,15.20
2019-05-21T04:46:49.725Z,15.20
2019-05-21T04:49:16.505Z,15.20
2019-05-21T04:51:44.739Z,15.30
2019-05-21T04:54:11.905Z,15.30
2019-05-21T04:56:38.552Z,15.40
2019-05-21T04:59:06.211Z,15.40
2019-05-21T05:01:32.951Z,15.40
2019-05-21T05:03:59.713Z,15.40
2019-05-21T05:06:26.439Z,15.40
2019-05-21T05:08:53.902Z,15.40
2019-05-21T05:11:20.543Z,15.40
2019-05-21T05:13:47.099Z,15.70
2019-05-21T05:16:13.738Z,15.70
2019-05-21T05:18:40.402Z,15.60
2019-05-21T05:21:07.120Z,15.70
2019-05-21T05:23:35.385Z,15.80
2019-05-21T05:26:02.183Z,15.70
2019-05-21T05:28:28.943Z,15.80
2019-05-21T05:30:55.585Z,16.00
2019-05-21T05:33:22.141Z,16.00
2019-05-21T05:35:48.711Z,15.90
2019-05-21T05:38:15.336Z,15.90
2019-05-21T05:40:41.909Z,15.90
2019-05-21T05:43:08.553Z,16.00
2019-05-21T05:45:35.228Z,16.00
2019-05-21T05:48:03.368Z,15.80
2019-05-21T05:50:38.192Z,15.90
2019-05-21T05:53:06.131Z,15.80
2019-05-21T05:55:32.682Z,15.90
2019-05-21T05:57:59.305Z,16.00
2019-05-21T06:00:25.968Z,16.00
2019-05-21T06:02:54.183Z,16.10
2019-05-21T06:05:20.853Z,16.00
2019-05-21T06:07:59.385Z,16.20
2019-05-21T06:10:15.956Z,16.00
2019-05-21T06:12:43.089Z,16.10
2019-05-21T06:15:10.862Z,16.20
2019-05-21T06:17:37.503Z,16.10
2019-05-21T06:20:06.338Z,16.10
2019-05-21T06:22:33.159Z,16.10
2019-05-21T06:24:59.821Z,16.00
2019-05-21T06:27:27.386Z,16.10
2019-05-21T06:29:54.758Z,16.20
2019-05-21T06:32:21.390Z,16.10
2019-05-21T06:34:48.907Z,16.20
2019-05-21T06:37:15.606Z,16.10
2019-05-21T06:39:42.182Z,16.00
2019-05-21T06:42:09.523Z,16.20
2019-05-21T06:44:36.103Z,16.10
2019-05-21T06:47:02.933Z,16.30
2019-05-21T06:49:29.501Z,16.30
2019-05-21T06:51:56.039Z,16.30
2019-05-21T06:54:22.607Z,16.40
2019-05-21T06:56:49.139Z,16.30
2019-05-21T06:59:15.703Z,16.20
2019-05-21T07:01:42.455Z,16.40
2019-05-21T07:04:09.124Z,16.60
2019-05-21T07:06:35.776Z,16.80
2019-05-21T07:09:04.295Z,17.00
2019-05-21T07:11:30.865Z,17.00
2019-05-21T07:13:57.498Z,16.80
2019-05-21T07:16:24.184Z,16.70
2019-05-21T07:18:50.716Z,16.80
2019-05-21T07:21:17.294Z,16.80
2019-05-21T07:23:43.922Z,17.00
2019-05-21T07:26:10.582Z,16.90
2019-05-21T07:28:37.247Z,17.00
2019-05-21T07:31:03.820Z,16.90
2019-05-21T07:33:30.338Z,16.90
2019-05-21T07:35:56.965Z,17.00
2019-05-21T07:38:23.559Z,16.80
2019-05-21T07:40:50.219Z,17.00
2019-05-21T07:43:16.660Z,17.10
2019-05-21T07:45:43.322Z,17.10
2019-05-21T07:48:09.861Z,17.10
2019-05-21T07:50:36.415Z,16.90
2019-05-21T07:53:03.162Z,16.80
2019-05-21T07:55:29.716Z,16.90
2019-05-21T07:57:56.344Z,17.10
2019-05-21T08:00:23.311Z,17.20
2019-05-21T08:02:49.946Z,17.10
2019-05-21T08:05:16.431Z,17.40
2019-05-21T08:07:43.669Z,17.40
2019-05-21T08:10:10.531Z,17.20
2019-05-21T08:12:39.379Z,17.10
2019-05-21T08:15:07.668Z,17.40
2019-05-21T08:17:34.322Z,17.40
2019-05-21T08:20:09.189Z,17.40
2019-05-21T08:22:29.729Z,17.30
2019-05-21T08:24:56.259Z,17.40
2019-05-21T08:27:22.823Z,17.50
2019-05-21T08:29:49.733Z,17.50
2019-05-21T08:32:16.302Z,17.70
2019-05-21T08:34:42.866Z,17.40
2019-05-21T08:37:09.638Z,17.40
2019-05-21T08:39:36.370Z,17.60
2019-05-21T08:42:03.152Z,17.50
2019-05-21T08:44:29.697Z,17.40
2019-05-21T08:46:56.300Z,17.40
2019-05-21T08:49:22.756Z,17.50
2019-05-21T08:51:49.294Z,17.50
2019-05-21T08:54:17.928Z,17.50
2019-05-21T08:56:44.699Z,17.50
2019-05-21T08:59:11.428Z,17.60
2019-05-21T09:01:38.106Z,17.60
2019-05-21T09:04:04.645Z,17.50
2019-05-21T09:06:31.405Z,17.30
2019-05-21T09:08:58.030Z,17.40
2019-05-21T09:11:24.794Z,17.50
2019-05-21T09:13:51.819Z,17.40
2019-05-21T09:16:18.501Z,17.40
2019-05-21T09:18:45.134Z,17.60
2019-05-21T09:21:12.444Z,17.40
2019-05-21T09:23:39.073Z,17.40
2019-05-21T09:26:05.854Z,17.70
2019-05-21T09:28:32.582Z,17.60
2019-05-21T09:31:01.671Z,17.40
2019-05-21T09:33:27.680Z,17.30
2019-05-21T09:35:54.250Z,17.70
2019-05-21T09:38:20.889Z,17.70
2019-05-21T09:40:47.541Z,17.70
2019-05-21T09:43:14.217Z,17.80
2019-05-21T09:45:41.854Z,17.70
2019-05-21T09:48:08.413Z,17.60
2019-05-21T09:50:34.951Z,17.60
2019-05-21T09:53:01.545Z,17.60
2019-05-21T09:55:28.075Z,17.40
2019-05-21T09:57:56.562Z,17.30
2019-05-21T10:00:42.246Z,17.40
2019-05-21T10:03:22.894Z,17.20
2019-05-21T10:05:49.635Z,16.80
2019-05-21T10:08:16.218Z,16.70
2019-05-21T10:10:42.634Z,16.80
2019-05-21T10:13:09.307Z,16.90
2019-05-21T10:15:35.886Z,17.00
2019-05-21T10:18:02.546Z,17.00
2019-05-21T10:20:30.767Z,16.90
2019-05-21T10:22:57.503Z,16.80
2019-05-21T10:25:25.125Z,16.70
2019-05-21T10:27:51.794Z,17.00
2019-05-21T10:30:18.343Z,17.10
2019-05-21T10:32:45.229Z,16.80
2019-05-21T10:35:12.274Z,16.90
2019-05-21T10:37:53.749Z,17.10
2019-05-21T10:40:09.788Z,17.20
2019-05-21T10:42:36.452Z,17.20
2019-05-21T10:45:05.696Z,17.40
2019-05-21T10:47:32.473Z,17.30
2019-05-21T10:49:58.990Z,17.30
2019-05-21T10:52:25.665Z,17.10
2019-05-21T10:54:53.901Z,17.00
2019-05-21T10:57:20.591Z,16.90
2019-05-21T10:59:47.610Z,17.00
2019-05-21T11:02:16.187Z,17.10
2019-05-21T11:04:45.100Z,17.10
2019-05-21T11:07:13.816Z,17.10
2019-05-21T11:09:40.482Z,17.00
2019-05-21T11:12:08.822Z,17.00
2019-05-21T11:14:35.500Z,17.20
2019-05-21T11:17:02.033Z,17.30
2019-05-21T11:19:28.615Z,17.20
2019-05-21T11:21:55.290Z,17.10
2019-05-21T11:24:21.968Z,17.10
2019-05-21T11:26:48.532Z,17.00
2019-05-21T11:29:15.062Z,16.90
2019-05-21T11:31:55.748Z,16.70
2019-05-21T11:34:10.157Z,16.70
2019-05-21T11:36:36.753Z,16.70
2019-05-21T11:39:06.236Z,17.00
2019-05-21T11:41:32.879Z,17.00
2019-05-21T11:43:59.439Z,17.20
2019-05-21T11:46:26.083Z,17.10
2019-05-21T11:48:52.768Z,17.00
2019-05-21T11:51:19.397Z,17.10
2019-05-21T11:53:46.008Z,17.10
2019-05-21T11:56:12.545Z,17.10
2019-05-21T11:58:39.966Z,17.20
2019-05-21T12:01:06.759Z,17.10
2019-05-21T12:03:33.313Z,16.80
2019-05-21T12:05:59.878Z,16.80
2019-05-21T12:08:26.537Z,16.80
2019-05-21T12:10:53.421Z,16.90
2019-05-21T12:13:20.664Z,16.80
2019-05-21T12:15:47.509Z,16.80
2019-05-21T12:18:14.163Z,16.70
2019-05-21T12:20:40.722Z,16.80
2019-05-21T12:23:07.397Z,16.60
2019-05-21T12:25:34.074Z,16.80
2019-05-21T12:28:00.618Z,16.90
2019-05-21T12:30:46.747Z,16.90
2019-05-21T12:33:13.268Z,17.00
2019-05-21T12:35:39.821Z,17.00
2019-05-21T12:38:06.606Z,17.00
2019-05-21T12:40:33.168Z,16.80
2019-05-21T12:42:59.896Z,17.00
2019-05-21T12:45:26.470Z,17.20
2019-05-21T12:47:53.228Z,17.50
2019-05-21T12:50:20.408Z,17.40
2019-05-21T12:52:46.934Z,17.50
2019-05-21T12:55:13.703Z,17.40
2019-05-21T12:57:42.369Z,17.30
2019-05-21T13:00:13.131Z,17.20
2019-05-21T13:02:39.674Z,17.10
2019-05-21T13:05:06.658Z,17.00
2019-05-21T13:07:33.427Z,17.30
2019-05-21T13:10:00.910Z,17.20
2019-05-21T13:12:27.647Z,17.00
2019-05-21T13:14:54.323Z,17.00
2019-05-21T13:17:21.067Z,17.20
2019-05-21T13:19:48.122Z,17.50
2019-05-21T13:22:14.688Z,17.70
2019-05-21T13:24:41.364Z,17.70
2019-05-21T13:27:08.093Z,17.80
2019-05-21T13:29:36.407Z,17.70
2019-05-21T13:32:03.414Z,17.60
2019-05-21T13:34:31.684Z,17.20
2019-05-21T13:36:58.413Z,17.30
2019-05-21T13:39:26.264Z,17.30
2019-05-21T13:41:52.933Z,17.20
2019-05-21T13:44:19.572Z,17.20
2019-05-21T13:46:46.251Z,17.20
2019-05-21T13:49:12.881Z,17.20
2019-05-21T13:51:39.469Z,17.20
2019-05-21T13:54:05.997Z,17.30
2019-05-21T13:56:32.841Z,17.20
2019-05-21T13:58:59.385Z,17.10
2019-05-21T14:01:39.932Z,17.10
2019-05-21T14:03:54.603Z,17.20
2019-05-21T14:06:21.161Z,17.10
2019-05-21T14:08:47.698Z,17.10
2019-05-21T14:11:14.469Z,17.20
2019-05-21T14:13:41.312Z,17.40
2019-05-21T14:16:08.079Z,17.40
2019-05-21T14:18:34.610Z,17.30
2019-05-21T14:21:01.185Z,17.50
2019-05-21T14:23:29.482Z,17.40
2019-05-21T14:25:56.110Z,17.50
2019-05-21T14:28:22.924Z,17.60
2019-05-21T14:30:49.561Z,17.50
2019-05-21T14:33:16.223Z,17.50
2019-05-21T14:35:42.788Z,17.70
2019-05-21T14:38:09.478Z,17.80
2019-05-21T14:40:36.207Z,17.80
2019-05-21T14:43:03.070Z,17.70
2019-05-21T14:45:34.081Z,17.60
2019-05-21T14:47:59.702Z,17.70
2019-05-21T14:50:27.942Z,17.70
2019-05-21T14:52:54.914Z,17.70
2019-05-21T14:55:22.246Z,17.70
2019-05-21T14:57:49.014Z,17.50
2019-05-21T15:00:18.962Z,17.40
2019-05-21T15:02:46.190Z,17.50
2019-05-21T15:05:14.750Z,17.50
2019-05-21T15:07:41.406Z,17.40
2019-05-21T15:10:07.863Z,17.60
2019-05-21T15:12:34.420Z,17.60
2019-05-21T15:15:01.054Z,17.80
2019-05-21T15:17:27.614Z,17.80
2019-05-21T15:19:56.157Z,17.90
2019-05-21T15:22:22.762Z,17.70
2019-05-21T15:24:49.296Z,17.70
2019-05-21T15:27:15.864Z,17.80
2019-05-21T15:29:42.405Z,17.90
2019-05-21T15:32:09.038Z,17.90
2019-05-21T15:34:35.725Z,17.90
2019-05-21T15:37:03.785Z,17.70
2019-05-21T15:39:30.585Z,17.40
2019-05-21T15:41:57.118Z,17.40
2019-05-21T15:44:23.678Z,17.40
2019-05-21T15:46:51.880Z,17.40
2019-05-21T15:49:33.274Z,17.40
2019-05-21T15:51:47.126Z,17.50
2019-05-21T15:54:13.796Z,17.70
2019-05-21T15:56:40.523Z,17.60
2019-05-21T15:59:07.188Z,17.40
2019-05-21T16:01:34.026Z,17.50
2019-05-21T16:04:00.803Z,17.30
2019-05-21T16:06:27.559Z,17.30
2019-05-21T16:08:54.289Z,17.30
2019-05-21T16:11:28.743Z,17.30
2019-05-21T16:13:49.433Z,17.30
2019-05-21T16:16:15.964Z,17.20
2019-05-21T16:18:42.528Z,17.30
2019-05-21T16:21:09.096Z,17.40
2019-05-21T16:23:36.104Z,17.20
2019-05-21T16:26:02.836Z,17.30
2019-05-21T16:28:29.506Z,17.20
2019-05-21T16:30:56.143Z,17.10
2019-05-21T16:33:22.818Z,17.30
2019-05-21T16:35:49.555Z,17.20
2019-05-21T16:38:17.058Z,17.20
2019-05-21T16:40:44.156Z,17.20
2019-05-21T16:43:10.804Z,17.40
2019-05-21T16:45:37.492Z,17.40
2019-05-21T16:48:04.220Z,17.50
2019-05-21T16:50:30.787Z,17.40
2019-05-21T16:52:57.621Z,17.40
2019-05-21T16:55:24.497Z,17.60
2019-05-21T16:57:51.044Z,17.40
2019-05-21T17:00:18.804Z,17.30
2019-05-21T17:02:45.340Z,17.30
2019-05-21T17:05:12.818Z,17.30
2019-05-21T17:07:39.365Z,17.30
2019-05-21T17:10:06.933Z,17.30
2019-05-21T17:12:33.561Z,17.40
2019-05-21T17:15:00.038Z,17.30
2019-05-21T17:17:26.566Z,17.10
2019-05-21T17:19:53.232Z,17.10
2019-05-21T17:22:19.901Z,17.20
2019-05-21T17:24:46.471Z,17.20
2019-05-21T17:27:13.019Z,17.20
2019-05-21T17:29:39.770Z,17.10
2019-05-21T17:32:06.787Z,17.20
2019-05-21T17:34:33.601Z,17.20
2019-05-21T17:37:00.242Z,17.20
2019-05-21T17:39:26.821Z,17.20
2019-05-21T17:41:54.457Z,17.30
2019-05-21T17:44:24.411Z,17.20
2019-05-21T17:46:49.644Z,17.10
2019-05-21T17:49:16.994Z,17.10
2019-05-21T17:51:43.600Z,17.10
2019-05-21T17:54:10.441Z,17.10
2019-05-21T17:56:37.363Z,17.10
2019-05-21T17:59:03.981Z,17.20
2019-05-21T18:01:31.058Z,17.00
2019-05-21T18:03:58.354Z,17.10
2019-05-21T18:06:25.807Z,17.00
2019-05-21T18:08:52.453Z,16.90
2019-05-21T18:11:19.313Z,16.90
2019-05-21T18:13:48.186Z,17.00
2019-05-21T18:16:15.723Z,16.80
2019-05-21T18:18:44.556Z,16.80
2019-05-21T18:21:11.475Z,16.80
2019-05-21T18:23:38.385Z,17.10
2019-05-21T18:26:05.055Z,17.10
2019-05-21T18:28:32.118Z,17.10
2019-05-21T18:30:58.915Z,17.10
2019-05-21T18:33:25.609Z,17.00
2019-05-21T18:35:52.440Z,16.90
2019-05-21T18:38:20.080Z,16.90
2019-05-21T18:40:47.082Z,16.80
2019-05-21T18:43:13.753Z,16.90
2019-05-21T18:45:40.519Z,16.80
2019-05-21T18:48:08.280Z,16.90
2019-05-21T18:50:36.992Z,16.80
2019-05-21T18:53:04.198Z,16.80
2019-05-21T18:55:31.050Z,16.80
2019-05-21T18:57:57.859Z,16.70
2019-05-21T19:00:25.381Z,16.60
2019-05-21T19:02:52.218Z,16.50
2019-05-21T19:05:18.865Z,16.50
2019-05-21T19:07:45.469Z,16.40
2019-05-21T19:10:12.792Z,16.40
2019-05-21T19:12:40.724Z,16.30
2019-05-21T19:15:09.255Z,16.40
2019-05-21T19:17:36.319Z,16.40
2019-05-21T19:20:11.663Z,16.20
2019-05-21T19:22:39.393Z,16.20
2019-05-21T19:25:07.227Z,16.30
2019-05-21T19:27:35.089Z,16.20
2019-05-21T19:30:04.169Z,16.10
2019-05-21T19:32:31.132Z,16.10
2019-05-21T19:34:58.944Z,16.10
2019-05-21T19:37:25.789Z,16.10
2019-05-21T19:39:52.497Z,16.00
2019-05-21T19:42:19.768Z,16.20
2019-05-21T19:44:46.395Z,16.00
2019-05-21T19:47:12.985Z,15.90
2019-05-21T19:49:39.892Z,15.90
2019-05-21T19:52:06.582Z,15.90
2019-05-21T19:54:33.560Z,15.90
2019-05-21T19:57:00.228Z,16.00
2019-05-21T19:59:26.978Z,15.90
2019-05-21T20:01:55.465Z,15.80
2019-05-21T20:04:23.303Z,15.80
2019-05-21T20:06:50.251Z,15.90
2019-05-21T20:09:17.020Z,15.80
2019-05-21T20:11:43.730Z,15.80
2019-05-21T20:14:10.934Z,15.70
2019-05-21T20:16:38.081Z,15.70
2019-05-21T20:19:05.590Z,15.70
2019-05-21T20:21:34.258Z,15.70
2019-05-21T20:24:01.164Z,15.80
2019-05-21T20:26:30.834Z,15.90
2019-05-21T20:28:58.994Z,15.80
2019-05-21T20:31:26.258Z,15.70
2019-05-21T20:33:54.226Z,15.60
2019-05-21T20:36:21.174Z,15.70
2019-05-21T20:38:48.274Z,15.50
2019-05-21T20:41:17.645Z,15.50
2019-05-21T20:43:57.900Z,15.50
2019-05-21T20:46:13.862Z,15.50
2019-05-21T20:48:42.167Z,15.60
2019-05-21T20:51:09.375Z,15.60
2019-05-21T20:53:36.137Z,15.50
2019-05-21T20:56:04.475Z,15.60
2019-05-21T20:58:31.826Z,15.50
2019-05-21T21:01:00.254Z,15.50
2019-05-21T21:03:28.221Z,15.50
2019-05-21T21:05:54.801Z,15.50
2019-05-21T21:08:27.365Z,15.30
2019-05-21T21:10:51.717Z,15.30
2019-05-21T21:13:18.597Z,15.30
2019-05-21T21:15:45.842Z,15.50
2019-05-21T21:18:12.604Z,15.30
2019-05-21T21:20:39.227Z,15.30
2019-05-21T21:23:07.925Z,15.20
2019-05-21T21:25:35.164Z,15.30
2019-05-21T21:28:02.505Z,15.40
2019-05-21T21:30:31.137Z,15.40
2019-05-21T21:32:59.505Z,15.40
2019-05-21T21:35:26.535Z,15.40
2019-05-21T21:37:53.077Z,15.10
2019-05-21T21:40:21.429Z,15.10
2019-05-21T21:42:48.161Z,15.10
2019-05-21T21:45:14.927Z,15.20
2019-05-21T21:47:42.077Z,15.00
2019-05-21T21:50:10.044Z,15.10
2019-05-21T21:52:36.973Z,15.20
2019-05-21T21:55:05.741Z,15.10
2019-05-21T21:57:32.378Z,14.80
2019-05-21T21:59:59.445Z,14.70
2019-05-21T22:02:31.605Z,14.80
2019-05-21T22:04:59.876Z,14.80
2019-05-21T22:07:28.212Z,14.70
2019-05-21T22:09:56.402Z,14.60
2019-05-21T22:12:23.838Z,14.60
2019-05-21T22:14:57.023Z,14.50
2019-05-21T22:17:24.446Z,14.60
2019-05-21T22:19:51.231Z,14.60
2019-05-21T22:22:18.076Z,14.70
2019-05-21T22:24:44.697Z,14.50
2019-05-21T22:27:11.634Z,14.60
2019-05-21T22:29:38.313Z,14.50
2019-05-21T22:32:05.440Z,14.50
2019-05-21T22:34:32.201Z,14.50
2019-05-21T22:36:58.737Z,14.60
2019-05-21T22:39:27.492Z,14.50
2019-05-21T22:41:54.185Z,14.50
2019-05-21T22:44:20.934Z,14.40
2019-05-21T22:46:47.507Z,14.30
2019-05-21T22:49:14.137Z,14.40
2019-05-21T22:51:40.718Z,14.40
2019-05-21T22:54:07.239Z,14.30
2019-05-21T22:56:34.033Z,14.30
2019-05-21T22:59:01.718Z,14.30
2019-05-21T23:01:29.913Z,14.20
2019-05-21T23:03:57.165Z,14.20
2019-05-21T23:06:24.079Z,14.00
2019-05-21T23:08:50.662Z,14.00
2019-05-21T23:11:17.327Z,14.00
2019-05-21T23:13:44.150Z,14.10
2019-05-21T23:16:11.112Z,14.00
2019-05-21T23:18:39.057Z,14.00
2019-05-21T23:21:07.645Z,14.10
2019-05-21T23:23:35.189Z,14.10
2019-05-21T23:26:02.158Z,14.00
2019-05-21T23:28:30.677Z,14.00
2019-05-21T23:30:58.339Z,13.90
2019-05-21T23:33:27.054Z,13.80
2019-05-21T23:35:53.638Z,13.60
2019-05-21T23:38:21.071Z,13.80
2019-05-21T23:40:48.346Z,13.80
2019-05-21T23:43:16.703Z,13.80
2019-05-21T23:45:43.879Z,13.80
2019-05-21T23:48:13.214Z,13.70
2019-05-21T23:50:40.087Z,13.80
2019-05-21T23:53:09.326Z,13.80
2019-05-21T23:55:38.301Z,13.80
2019-05-21T23:58:07.229Z,13.90
